Mount Hope — C4QH2 — position and weather

sailwx.info

Track history (hours):
 
Tides and Currents Weather Stations Pressure Air Temp Water Temp Dewpoint Dewpoint Depression Visibility Wind Speed Wind Dir Waves Ship Positions

Mount Hope

Last reported at 2014-Nov-28 11:33 UTC. Time now 2014-Nov-28 12:06 UTC.
Position N 56°01' E 012°38'.

Length 182 m; draft 6.7 m.

Type: Tanker. MMSI: 210137000.

Date/timePositionNaut miles runAvg speedWind from/ knotsBaromVisibWave heightAir tempDewpointWater temp
2014-Nov-28 11:33N 56°01' E 012°38'9 9.0
2014-Nov-28 10:33N 56°08' E 012°28'10 9.6
2014-Nov-28 09:33N 56°14' E 012°13'68 9.7
2014-Nov-28 02:33N 57°18' E 011°31'1010.2
2014-Nov-28 01:33N 57°27' E 011°25'10 9.8
2014-Nov-28 00:33N 57°34' E 011°12'10 9.7
2014-Nov-27 23:33N 57°39' E 010°56'9 1.1
2014-Nov-27 15:31N 57°42' E 010°40'4 4.5
2014-Nov-27 14:33N 57°45' E 010°46'7 6.7
2014-Nov-27 13:33N 57°48' E 010°35'61 9.5
2014-Nov-27 07:07N 57°28' E 008°46'17 9.8
2014-Nov-27 05:25N 57°19' E 008°20'10 9.7
2014-Nov-27 04:26N 57°14' E 008°06'10 9.8
2014-Nov-27 03:25N 57°06' E 007°55'9 9.7
2014-Nov-27 02:31N 56°59' E 007°46'346 9.9
2014-Nov-25 15:31N 52°13' E 002°09'1111.7
2014-Nov-25 14:33N 52°04' E 001°57'1111.2
2014-Nov-25 13:33N 51°54' E 001°48'1212.1
2014-Nov-25 12:33N 51°42' E 001°49'9 9.0
2014-Nov-25 11:33N 51°35' E 001°41'7 6.6
2014-Nov-25 10:29N 51°32' E 001°31'0 0.0
2014-Nov-25 09:32N 51°32' E 001°31'0 0.0
2014-Nov-25 08:32N 51°32' E 001°31'0 0.0
2014-Nov-25 07:32N 51°32' E 001°31'0 0.2
2014-Nov-25 06:32N 51°32' E 001°31'0 0.0
2014-Nov-25 05:32N 51°32' E 001°31'0 0.0
2014-Nov-25 04:32N 51°32' E 001°31'0 0.0
2014-Nov-25 03:32N 51°32' E 001°31'0 0.1
2014-Nov-25 02:32N 51°32' E 001°31'0 0.1
2014-Nov-25 01:32N 51°32' E 001°31'0 0.0
2014-Nov-25 00:29N 51°32' E 001°31'0 0.0
2014-Nov-24 23:32N 51°32' E 001°31'0 0.1
2014-Nov-24 22:32N 51°32' E 001°31'0 0.0
2014-Nov-24 21:29N 51°32' E 001°31'0 0.0
2014-Nov-24 20:32N 51°32' E 001°31'0 0.0
2014-Nov-24 19:30N 51°32' E 001°31'0 0.1
2014-Nov-24 18:32N 51°32' E 001°31'0 0.1
2014-Nov-24 17:32N 51°32' E 001°31'0 0.0
2014-Nov-24 16:32N 51°32' E 001°31'0 0.0
2014-Nov-24 15:32N 51°32' E 001°31'0 0.0
2014-Nov-24 14:29N 51°32' E 001°31'0 0.1
2014-Nov-24 13:32N 51°32' E 001°31'0 0.0
2014-Nov-24 12:32N 51°32' E 001°31'0 0.0
2014-Nov-24 11:32N 51°32' E 001°31'0 0.1
2014-Nov-24 10:32N 51°32' E 001°31'0 0.0
2014-Nov-24 09:29N 51°32' E 001°31'0 0.0
2014-Nov-24 08:32N 51°32' E 001°31'0 0.0
2014-Nov-24 07:29N 51°32' E 001°31'0 0.1
2014-Nov-24 06:32N 51°32' E 001°31'0 0.0
2014-Nov-24 05:32N 51°32' E 001°31'0 0.0
2014-Nov-24 04:32N 51°32' E 001°31'0 0.0
2014-Nov-24 03:32N 51°32' E 001°31'0 0.0
2014-Nov-24 02:32N 51°32' E 001°31'0 0.2
2014-Nov-24 01:29N 51°32' E 001°31'0 0.0
2014-Nov-24 00:32N 51°32' E 001°31'0 0.0
2014-Nov-23 23:32N 51°32' E 001°31'0 0.1
2014-Nov-23 22:32N 51°32' E 001°31'0 0.0
2014-Nov-23 21:32N 51°32' E 001°31'0 0.0
2014-Nov-23 20:32N 51°32' E 001°31'0 0.0
2014-Nov-23 19:32N 51°32' E 001°31'0 0.0
2014-Nov-23 18:32N 51°32' E 001°31'0 0.0
2014-Nov-23 17:29N 51°32' E 001°31'0 0.0
2014-Nov-23 16:29N 51°32' E 001°31'0 0.0
2014-Nov-23 15:32N 51°32' E 001°31'0 0.0
2014-Nov-23 14:29N 51°32' E 001°31'0 0.0
2014-Nov-23 13:32N 51°32' E 001°31'0 0.1
2014-Nov-23 12:32N 51°32' E 001°31'0 0.0
2014-Nov-23 11:29N 51°32' E 001°31'0 0.0
2014-Nov-23 10:32N 51°32' E 001°31'0 0.1
2014-Nov-23 09:32N 51°32' E 001°31'0 0.0
2014-Nov-23 08:32N 51°32' E 001°31'0 0.0
2014-Nov-23 07:32N 51°32' E 001°31'0 0.0
2014-Nov-23 06:29N 51°32' E 001°31'0 0.1
2014-Nov-23 05:32N 51°32' E 001°31'0 0.1
2014-Nov-23 04:32N 51°32' E 001°31'0 0.0
2014-Nov-23 03:32N 51°32' E 001°31'0 0.0
2014-Nov-23 02:32N 51°32' E 001°31'0 0.0
2014-Nov-23 01:29N 51°32' E 001°31'0 0.1
2014-Nov-23 00:32N 51°32' E 001°31'0 0.1
2014-Nov-22 23:32N 51°32' E 001°31'0 0.0
2014-Nov-22 22:32N 51°32' E 001°31'0 0.1
2014-Nov-22 21:32N 51°32' E 001°31'0 0.0
2014-Nov-22 20:32N 51°32' E 001°31'0 0.0
2014-Nov-22 19:32N 51°32' E 001°31'0 0.1
2014-Nov-22 18:32N 51°32' E 001°31'0 0.1
2014-Nov-22 17:29N 51°32' E 001°31'2 1.9
2014-Nov-22 16:34N 51°30' E 001°30'10 9.7
2014-Nov-22 15:34N 51°29' E 001°15'1413.9
2014-Nov-22 14:34N 51°29' E 000°52'1414.3
2014-Nov-22 13:33N 51°30' E 000°29'8 8.4
2014-Nov-22 12:34N 51°28' E 000°16'0 0.2
2014-Nov-22 11:34N 51°28' E 000°16'0 0.0
2014-Nov-22 10:34N 51°28' E 000°16'0 0.0
2014-Nov-22 09:34N 51°28' E 000°16'0 0.0
2014-Nov-22 08:34N 51°28' E 000°16'0 0.0
2014-Nov-22 07:33N 51°28' E 000°16'0 0.0
2014-Nov-22 06:34N 51°28' E 000°16'0 0.0
2014-Nov-22 05:34N 51°28' E 000°16'0 0.0
2014-Nov-22 04:34N 51°28' E 000°16'0 0.0
2014-Nov-22 03:34N 51°28' E 000°16'0 0.0
2014-Nov-22 02:34N 51°28' E 000°16'0 0.0
2014-Nov-22 01:34N 51°28' E 000°16'0 0.0
2014-Nov-22 00:34N 51°28' E 000°16'0 0.0
2014-Nov-21 23:34N 51°28' E 000°16'0 0.0
2014-Nov-21 22:34N 51°28' E 000°16'0 0.0
2014-Nov-21 21:34N 51°28' E 000°16'0 0.0
2014-Nov-21 20:34N 51°28' E 000°16'0 0.0
2014-Nov-21 19:34N 51°28' E 000°16'0 0.0
2014-Nov-21 18:34N 51°28' E 000°16'0 0.0
2014-Nov-21 17:34N 51°28' E 000°16'0 0.0
2014-Nov-21 16:34N 51°28' E 000°16'0 0.0
2014-Nov-21 15:34N 51°28' E 000°16'0 0.0
2014-Nov-21 14:34N 51°28' E 000°16'0 0.0
2014-Nov-21 13:34N 51°28' E 000°16'0 0.0
2014-Nov-21 12:34N 51°28' E 000°16'0 0.0
2014-Nov-21 11:34N 51°28' E 000°16'0 0.0
2014-Nov-21 10:34N 51°28' E 000°16'0 0.0
2014-Nov-21 09:34N 51°28' E 000°16'0 0.0
2014-Nov-21 08:34N 51°28' E 000°16'0 0.0
2014-Nov-21 07:34N 51°28' E 000°16'0 0.0
2014-Nov-21 06:34N 51°28' E 000°16'0 0.0
2014-Nov-21 05:34N 51°28' E 000°16'0 0.0
2014-Nov-21 04:34N 51°28' E 000°16'0 0.0
2014-Nov-21 03:34N 51°28' E 000°16'0 0.0
2014-Nov-21 02:34N 51°28' E 000°16'0 0.0
2014-Nov-21 01:34N 51°28' E 000°16'0 0.0
2014-Nov-21 00:34N 51°28' E 000°16'0 0.0
2014-Nov-20 23:34N 51°28' E 000°16'0 0.0
2014-Nov-20 22:34N 51°28' E 000°16'0 0.0
2014-Nov-20 21:34N 51°28' E 000°16'0 0.0
2014-Nov-20 20:34N 51°28' E 000°16'0 0.0
2014-Nov-20 19:34N 51°28' E 000°16'0 0.0
2014-Nov-20 18:34N 51°28' E 000°16'0 0.0
2014-Nov-20 17:34N 51°28' E 000°16'0 0.0
2014-Nov-20 16:34N 51°28' E 000°16'0 0.0
2014-Nov-20 15:34N 51°28' E 000°16'0 0.0
2014-Nov-20 14:34N 51°28' E 000°16'0 0.0
2014-Nov-20 13:34N 51°28' E 000°16'0 0.0
2014-Nov-20 12:34N 51°28' E 000°16'0 0.0
2014-Nov-20 11:34N 51°28' E 000°16'0 0.0
2014-Nov-20 10:34N 51°28' E 000°16'0 0.0
2014-Nov-20 09:34N 51°28' E 000°16'0 0.0
2014-Nov-20 08:34N 51°28' E 000°16'0 0.0
2014-Nov-20 07:34N 51°28' E 000°16'0 0.0
2014-Nov-20 06:34N 51°28' E 000°16'0 0.0
2014-Nov-20 05:34N 51°28' E 000°16'0 0.0
2014-Nov-20 04:34N 51°28' E 000°16'0 0.0
2014-Nov-20 03:34N 51°28' E 000°16'0 0.0
2014-Nov-20 02:34N 51°28' E 000°16'0 0.1
2014-Nov-20 01:34N 51°28' E 000°16'3 2.6
2014-Nov-20 00:34N 51°27' E 000°21'6 6.5
2014-Nov-19 23:34N 51°30' E 000°30'6 5.8
2014-Nov-19 22:33N 51°30' E 000°39'1010.3
2014-Nov-19 21:33N 51°29' E 000°55'1212.2
2014-Nov-19 20:33N 51°34' E 001°13'1312.8
2014-Nov-19 19:34N 51°43' E 001°28'6 6.2
2014-Nov-19 18:32N 51°49' E 001°30'0 0.0
2014-Nov-19 17:32N 51°49' E 001°30'0 0.1
2014-Nov-19 16:32N 51°49' E 001°30'0 0.2
2014-Nov-19 15:32N 51°49' E 001°31'0 0.0
2014-Nov-19 14:32N 51°49' E 001°31'0 0.0
2014-Nov-19 13:32N 51°49' E 001°31'0 0.1
2014-Nov-19 12:32N 51°49' E 001°31'0 0.0
2014-Nov-19 11:32N 51°49' E 001°31'0 0.0
2014-Nov-19 10:32N 51°49' E 001°31'0 0.2
2014-Nov-19 09:32N 51°49' E 001°30'0 0.1
2014-Nov-19 08:32N 51°49' E 001°30'0 0.0
2014-Nov-19 07:32N 51°49' E 001°30'0 0.0
2014-Nov-19 06:32N 51°49' E 001°30'0 0.0
2014-Nov-19 05:32N 51°49' E 001°30'1 0.6
2014-Nov-19 04:33N 51°50' E 001°31'10 9.8
2014-Nov-19 03:33N 51°51' E 001°47'1212.2
2014-Nov-19 02:33N 51°39' E 001°50'1212.1
2014-Nov-19 01:33N 51°27' E 001°54'1111.3
2014-Nov-19 00:33N 51°19' E 002°07'1312.6
2014-Nov-18 23:33N 51°10' E 001°53'1413.8
2014-Nov-18 22:33N 51°01' E 001°37'  
Track history (hours):
 
Tides and Currents Weather Stations Pressure Air Temp Water Temp Dewpoint Dewpoint Depression Visibility Wind Speed Wind Dir Waves Ship Positions

Mount Hope

Last reported at 2014-Nov-28 11:33 UTC. Time now 2014-Nov-28 12:06 UTC.
Position N 56°01' E 012°38'.

Length 182 m; draft 6.7 m.

Type: Tanker. MMSI: 210137000.

Date/timePositionNaut miles runAvg speedWind from/ knotsBaromVisibWave heightAir tempDewpointWater temp
2014-Nov-28 11:33N 56°01' E 012°38'9 9.0
2014-Nov-28 10:33N 56°08' E 012°28'10 9.6
2014-Nov-28 09:33N 56°14' E 012°13'68 9.7
2014-Nov-28 02:33N 57°18' E 011°31'1010.2
2014-Nov-28 01:33N 57°27' E 011°25'10 9.8
2014-Nov-28 00:33N 57°34' E 011°12'10 9.7
2014-Nov-27 23:33N 57°39' E 010°56'9 1.1
2014-Nov-27 15:31N 57°42' E 010°40'4 4.5
2014-Nov-27 14:33N 57°45' E 010°46'7 6.7
2014-Nov-27 13:33N 57°48' E 010°35'61 9.5
2014-Nov-27 07:07N 57°28' E 008°46'17 9.8
2014-Nov-27 05:25N 57°19' E 008°20'10 9.7
2014-Nov-27 04:26N 57°14' E 008°06'10 9.8
2014-Nov-27 03:25N 57°06' E 007°55'9 9.7
2014-Nov-27 02:31N 56°59' E 007°46'346 9.9
2014-Nov-25 15:31N 52°13' E 002°09'1111.7
2014-Nov-25 14:33N 52°04' E 001°57'1111.2
2014-Nov-25 13:33N 51°54' E 001°48'1212.1
2014-Nov-25 12:33N 51°42' E 001°49'9 9.0
2014-Nov-25 11:33N 51°35' E 001°41'7 6.6
2014-Nov-25 10:29N 51°32' E 001°31'0 0.0
2014-Nov-25 09:32N 51°32' E 001°31'0 0.0
2014-Nov-25 08:32N 51°32' E 001°31'0 0.0
2014-Nov-25 07:32N 51°32' E 001°31'0 0.2
2014-Nov-25 06:32N 51°32' E 001°31'0 0.0
2014-Nov-25 05:32N 51°32' E 001°31'0 0.0
2014-Nov-25 04:32N 51°32' E 001°31'0 0.0
2014-Nov-25 03:32N 51°32' E 001°31'0 0.1
2014-Nov-25 02:32N 51°32' E 001°31'0 0.1
2014-Nov-25 01:32N 51°32' E 001°31'0 0.0
2014-Nov-25 00:29N 51°32' E 001°31'0 0.0
2014-Nov-24 23:32N 51°32' E 001°31'0 0.1
2014-Nov-24 22:32N 51°32' E 001°31'0 0.0
2014-Nov-24 21:29N 51°32' E 001°31'0 0.0
2014-Nov-24 20:32N 51°32' E 001°31'0 0.0
2014-Nov-24 19:30N 51°32' E 001°31'0 0.1
2014-Nov-24 18:32N 51°32' E 001°31'0 0.1
2014-Nov-24 17:32N 51°32' E 001°31'0 0.0
2014-Nov-24 16:32N 51°32' E 001°31'0 0.0
2014-Nov-24 15:32N 51°32' E 001°31'0 0.0
2014-Nov-24 14:29N 51°32' E 001°31'0 0.1
2014-Nov-24 13:32N 51°32' E 001°31'0 0.0
2014-Nov-24 12:32N 51°32' E 001°31'0 0.0
2014-Nov-24 11:32N 51°32' E 001°31'0 0.1
2014-Nov-24 10:32N 51°32' E 001°31'0 0.0
2014-Nov-24 09:29N 51°32' E 001°31'0 0.0
2014-Nov-24 08:32N 51°32' E 001°31'0 0.0
2014-Nov-24 07:29N 51°32' E 001°31'0 0.1
2014-Nov-24 06:32N 51°32' E 001°31'0 0.0
2014-Nov-24 05:32N 51°32' E 001°31'0 0.0
2014-Nov-24 04:32N 51°32' E 001°31'0 0.0
2014-Nov-24 03:32N 51°32' E 001°31'0 0.0
2014-Nov-24 02:32N 51°32' E 001°31'0 0.2
2014-Nov-24 01:29N 51°32' E 001°31'0 0.0
2014-Nov-24 00:32N 51°32' E 001°31'0 0.0
2014-Nov-23 23:32N 51°32' E 001°31'0 0.1
2014-Nov-23 22:32N 51°32' E 001°31'0 0.0
2014-Nov-23 21:32N 51°32' E 001°31'0 0.0
2014-Nov-23 20:32N 51°32' E 001°31'0 0.0
2014-Nov-23 19:32N 51°32' E 001°31'0 0.0
2014-Nov-23 18:32N 51°32' E 001°31'0 0.0
2014-Nov-23 17:29N 51°32' E 001°31'0 0.0
2014-Nov-23 16:29N 51°32' E 001°31'0 0.0
2014-Nov-23 15:32N 51°32' E 001°31'0 0.0
2014-Nov-23 14:29N 51°32' E 001°31'0 0.0
2014-Nov-23 13:32N 51°32' E 001°31'0 0.1
2014-Nov-23 12:32N 51°32' E 001°31'0 0.0
2014-Nov-23 11:29N 51°32' E 001°31'0 0.0
2014-Nov-23 10:32N 51°32' E 001°31'0 0.1
2014-Nov-23 09:32N 51°32' E 001°31'0 0.0
2014-Nov-23 08:32N 51°32' E 001°31'0 0.0
2014-Nov-23 07:32N 51°32' E 001°31'0 0.0
2014-Nov-23 06:29N 51°32' E 001°31'0 0.1
2014-Nov-23 05:32N 51°32' E 001°31'0 0.1
2014-Nov-23 04:32N 51°32' E 001°31'0 0.0
2014-Nov-23 03:32N 51°32' E 001°31'0 0.0
2014-Nov-23 02:32N 51°32' E 001°31'0 0.0
2014-Nov-23 01:29N 51°32' E 001°31'0 0.1
2014-Nov-23 00:32N 51°32' E 001°31'0 0.1
2014-Nov-22 23:32N 51°32' E 001°31'0 0.0
2014-Nov-22 22:32N 51°32' E 001°31'0 0.1
2014-Nov-22 21:32N 51°32' E 001°31'0 0.0
2014-Nov-22 20:32N 51°32' E 001°31'0 0.0
2014-Nov-22 19:32N 51°32' E 001°31'0 0.1
2014-Nov-22 18:32N 51°32' E 001°31'0 0.1
2014-Nov-22 17:29N 51°32' E 001°31'2 1.9
2014-Nov-22 16:34N 51°30' E 001°30'10 9.7
2014-Nov-22 15:34N 51°29' E 001°15'1413.9
2014-Nov-22 14:34N 51°29' E 000°52'1414.3
2014-Nov-22 13:33N 51°30' E 000°29'8 8.4
2014-Nov-22 12:34N 51°28' E 000°16'0 0.2
2014-Nov-22 11:34N 51°28' E 000°16'0 0.0
2014-Nov-22 10:34N 51°28' E 000°16'0 0.0
2014-Nov-22 09:34N 51°28' E 000°16'0 0.0
2014-Nov-22 08:34N 51°28' E 000°16'0 0.0
2014-Nov-22 07:33N 51°28' E 000°16'0 0.0
2014-Nov-22 06:34N 51°28' E 000°16'0 0.0
2014-Nov-22 05:34N 51°28' E 000°16'0 0.0
2014-Nov-22 04:34N 51°28' E 000°16'0 0.0
2014-Nov-22 03:34N 51°28' E 000°16'0 0.0
2014-Nov-22 02:34N 51°28' E 000°16'0 0.0
2014-Nov-22 01:34N 51°28' E 000°16'0 0.0
2014-Nov-22 00:34N 51°28' E 000°16'0 0.0
2014-Nov-21 23:34N 51°28' E 000°16'0 0.0
2014-Nov-21 22:34N 51°28' E 000°16'0 0.0
2014-Nov-21 21:34N 51°28' E 000°16'0 0.0
2014-Nov-21 20:34N 51°28' E 000°16'0 0.0
2014-Nov-21 19:34N 51°28' E 000°16'0 0.0
2014-Nov-21 18:34N 51°28' E 000°16'0 0.0
2014-Nov-21 17:34N 51°28' E 000°16'0 0.0
2014-Nov-21 16:34N 51°28' E 000°16'0 0.0
2014-Nov-21 15:34N 51°28' E 000°16'0 0.0
2014-Nov-21 14:34N 51°28' E 000°16'0 0.0
2014-Nov-21 13:34N 51°28' E 000°16'0 0.0
2014-Nov-21 12:34N 51°28' E 000°16'0 0.0
2014-Nov-21 11:34N 51°28' E 000°16'0 0.0
2014-Nov-21 10:34N 51°28' E 000°16'0 0.0
2014-Nov-21 09:34N 51°28' E 000°16'0 0.0
2014-Nov-21 08:34N 51°28' E 000°16'0 0.0
2014-Nov-21 07:34N 51°28' E 000°16'0 0.0
2014-Nov-21 06:34N 51°28' E 000°16'0 0.0
2014-Nov-21 05:34N 51°28' E 000°16'0 0.0
2014-Nov-21 04:34N 51°28' E 000°16'0 0.0
2014-Nov-21 03:34N 51°28' E 000°16'0 0.0
2014-Nov-21 02:34N 51°28' E 000°16'0 0.0
2014-Nov-21 01:34N 51°28' E 000°16'0 0.0
2014-Nov-21 00:34N 51°28' E 000°16'0 0.0
2014-Nov-20 23:34N 51°28' E 000°16'0 0.0
2014-Nov-20 22:34N 51°28' E 000°16'0 0.0
2014-Nov-20 21:34N 51°28' E 000°16'0 0.0
2014-Nov-20 20:34N 51°28' E 000°16'0 0.0
2014-Nov-20 19:34N 51°28' E 000°16'0 0.0
2014-Nov-20 18:34N 51°28' E 000°16'0 0.0
2014-Nov-20 17:34N 51°28' E 000°16'0 0.0
2014-Nov-20 16:34N 51°28' E 000°16'0 0.0
2014-Nov-20 15:34N 51°28' E 000°16'0 0.0
2014-Nov-20 14:34N 51°28' E 000°16'0 0.0
2014-Nov-20 13:34N 51°28' E 000°16'0 0.0
2014-Nov-20 12:34N 51°28' E 000°16'0 0.0
2014-Nov-20 11:34N 51°28' E 000°16'0 0.0
2014-Nov-20 10:34N 51°28' E 000°16'0 0.0
2014-Nov-20 09:34N 51°28' E 000°16'0 0.0
2014-Nov-20 08:34N 51°28' E 000°16'0 0.0
2014-Nov-20 07:34N 51°28' E 000°16'0 0.0
2014-Nov-20 06:34N 51°28' E 000°16'0 0.0
2014-Nov-20 05:34N 51°28' E 000°16'0 0.0
2014-Nov-20 04:34N 51°28' E 000°16'0 0.0
2014-Nov-20 03:34N 51°28' E 000°16'0 0.0
2014-Nov-20 02:34N 51°28' E 000°16'0 0.1
2014-Nov-20 01:34N 51°28' E 000°16'3 2.6
2014-Nov-20 00:34N 51°27' E 000°21'6 6.5
2014-Nov-19 23:34N 51°30' E 000°30'6 5.8
2014-Nov-19 22:33N 51°30' E 000°39'1010.3
2014-Nov-19 21:33N 51°29' E 000°55'1212.2
2014-Nov-19 20:33N 51°34' E 001°13'1312.8
2014-Nov-19 19:34N 51°43' E 001°28'6 6.2
2014-Nov-19 18:32N 51°49' E 001°30'0 0.0
2014-Nov-19 17:32N 51°49' E 001°30'0 0.1
2014-Nov-19 16:32N 51°49' E 001°30'0 0.2
2014-Nov-19 15:32N 51°49' E 001°31'0 0.0
2014-Nov-19 14:32N 51°49' E 001°31'0 0.0
2014-Nov-19 13:32N 51°49' E 001°31'0 0.1
2014-Nov-19 12:32N 51°49' E 001°31'0 0.0
2014-Nov-19 11:32N 51°49' E 001°31'0 0.0
2014-Nov-19 10:32N 51°49' E 001°31'0 0.2
2014-Nov-19 09:32N 51°49' E 001°30'0 0.1
2014-Nov-19 08:32N 51°49' E 001°30'0 0.0
2014-Nov-19 07:32N 51°49' E 001°30'0 0.0
2014-Nov-19 06:32N 51°49' E 001°30'0 0.0
2014-Nov-19 05:32N 51°49' E 001°30'1 0.6
2014-Nov-19 04:33N 51°50' E 001°31'10 9.8
2014-Nov-19 03:33N 51°51' E 001°47'1212.2
2014-Nov-19 02:33N 51°39' E 001°50'1212.1
2014-Nov-19 01:33N 51°27' E 001°54'1111.3
2014-Nov-19 00:33N 51°19' E 002°07'1312.6
2014-Nov-18 23:33N 51°10' E 001°53'1413.8
2014-Nov-18 22:33N 51°01' E 001°37'  

Dump ship's entire track history